Time;durP1;ratioP1;P1;durP2;ratioP2;P2;SDS_P1;SDS_P2;PMS_P1;PMS_P2;Temp;Humidity;BMP_temperature;BMP_pressure;BME280_temperature;BME280_humidity;BME280_pressure;Samples;Min_cycle;Max_cycle;Signal;HPM_P1;HPM_P2
2023/01/22 00:01:26;;;;;;;;;;;;;;;9.42;50.79;99656.00;4481209;32;34101;-66
2023/01/22 00:03:53;;;;;;;;;;;;;;;9.70;50.43;99657.56;4483371;32;34099;-66
2023/01/22 00:06:22;;;;;;;;;;;;;;;9.68;50.56;99659.47;4482055;32;34551;-66
2023/01/22 00:08:49;;;;;;;;;;;;;;;9.85;50.26;99662.75;4482855;32;33591;-66
2023/01/22 00:11:17;;;;;;;;;;;;;;;9.68;50.73;99659.47;4481200;32;34232;-65
2023/01/22 00:13:45;;;;;;;;;;;;;;;9.52;51.79;99658.87;4476419;32;34793;-65
2023/01/22 00:16:13;;;;;;;;;;;;;;;9.34;52.32;99658.37;4480794;32;34279;-68
2023/01/22 00:18:40;;;;;;;;;;;;;;;9.53;51.20;99656.13;4472256;32;33469;-66
2023/01/22 00:21:08;;;;;;;;;;;;;;;9.54;50.65;99660.47;4471445;32;35219;-65
2023/01/22 00:23:35;;;;;;;;;;;;;;;9.09;52.04;99661.94;4484594;32;34066;-66
2023/01/22 00:26:03;;;;;;;;;;;;;;;8.97;52.43;99668.13;4481537;32;34496;-67
2023/01/22 00:28:31;;;;;;;;;;;;;;;9.50;50.83;99675.03;4471884;32;33693;-70
2023/01/22 00:30:59;;;;;;;;;;;;;;;9.61;50.33;99673.41;4477592;32;35157;-65
2023/01/22 00:33:26;;;;;;;;;;;;;;;9.43;51.53;99679.09;4474785;32;34291;-65
2023/01/22 00:35:54;;;;;;;;;;;;;;;9.69;50.60;99679.03;4473658;32;34391;-68
2023/01/22 00:38:21;;;;;;;;;;;;;;;9.71;50.63;99674.44;4477987;32;33618;-67
2023/01/22 00:40:49;;;;;;;;;;;;;;;9.88;49.97;99678.56;4481180;32;34136;-66
2023/01/22 00:43:16;;;;;;;;;;;;;;;9.84;50.15;99685.94;4482211;32;32917;-65
2023/01/22 00:45:43;;;;;;;;;;;;;;;9.98;49.73;99672.44;4485407;31;34387;-65
2023/01/22 00:48:11;;;;;;;;;;;;;;;9.86;49.93;99676.00;4482130;32;33740;-68
2023/01/22 00:50:38;;;;;;;;;;;;;;;9.74;50.18;99682.25;4475032;32;33775;-65
2023/01/22 00:53:05;;;;;;;;;;;;;;;9.89;50.11;99685.62;4478816;31;33994;-66
2023/01/22 00:55:33;;;;;;;;;;;;;;;10.01;49.92;99676.69;4475216;32;34605;-68
2023/01/22 00:58:00;;;;;;;;;;;;;;;10.00;49.76;99686.53;4470866;32;33213;-66
2023/01/22 01:00:27;;;;;;;;;;;;;;;10.10;49.65;99681.37;4476325;32;34074;-67
2023/01/22 01:05:41;;;;;;;;;;;;;;;10.02;49.92;99689.97;4485238;32;34708;-65
2023/01/22 01:08:09;;;;;;;;;;;;;;;10.08;49.78;99686.00;4482845;32;33318;-65
2023/01/22 01:10:38;;;;;;;;;;;;;;;10.09;49.53;99690.38;4473036;32;34172;-69
2023/01/22 01:13:05;;;;;;;;;;;;;;;10.09;49.76;99687.69;4479298;32;33883;-67
2023/01/22 01:15:33;;;;;;;;;;;;;;;9.84;50.41;99683.28;4475791;32;34150;-67
2023/01/22 01:18:00;;;;;;;;;;;;;;;10.18;49.71;99691.53;4472344;32;33563;-65
2023/01/22 01:20:28;;;;;;;;;;;;;;;10.01;50.13;99690.06;4453967;32;875619;-65
2023/01/22 01:22:55;;;;;;;;;;;;;;;10.09;50.16;99686.84;4480138;32;34641;-68
2023/01/22 01:25:22;;;;;;;;;;;;;;;9.92;50.54;99696.97;4483311;32;34036;-69
2023/01/22 01:27:50;;;;;;;;;;;;;;;10.18;49.93;99687.03;4474599;32;33627;-66
2023/01/22 01:30:17;;;;;;;;;;;;;;;9.99;50.88;99692.88;4481208;32;35379;-66
2023/01/22 01:32:45;;;;;;;;;;;;;;;9.90;50.66;99698.03;4471684;32;33018;-66
2023/01/22 01:35:12;;;;;;;;;;;;;;;9.45;52.49;99698.53;4482315;32;34412;-67
2023/01/22 01:37:39;;;;;;;;;;;;;;;8.42;55.62;99707.41;4475794;32;33393;-68
2023/01/22 01:40:09;;;;;;;;;;;;;;;9.62;51.54;99699.16;4484925;32;33925;-66
2023/01/22 01:42:38;;;;;;;;;;;;;;;9.65;50.97;99704.28;4477051;32;35252;-66
2023/01/22 01:45:24;;;;;;;;;;;;;;;9.91;50.57;99699.72;4486186;32;34142;-66
2023/01/22 01:48:11;;;;;;;;;;;;;;;9.96;50.51;99701.09;4473789;32;31913;-65
2023/01/22 01:50:39;;;;;;;;;;;;;;;9.94;50.95;99702.19;4476495;32;34166;-65
2023/01/22 01:53:06;;;;;;;;;;;;;;;10.11;50.46;99696.47;4454183;32;34252;-65
2023/01/22 01:55:34;;;;;;;;;;;;;;;9.94;50.90;99691.47;4475962;32;35455;-64
2023/01/22 01:58:02;;;;;;;;;;;;;;;9.44;52.80;99691.50;4470708;32;33613;-63
2023/01/22 02:00:30;;;;;;;;;;;;;;;9.80;51.27;99687.16;4474285;31;34159;-65
2023/01/22 02:02:57;;;;;;;;;;;;;;;9.78;51.25;99692.59;4460143;32;34414;-66
2023/01/22 02:05:25;;;;;;;;;;;;;;;9.81;51.30;99683.50;4454451;32;34359;-65
2023/01/22 02:07:52;;;;;;;;;;;;;;;10.06;50.67;99689.75;4461416;32;33566;-66
2023/01/22 02:10:19;;;;;;;;;;;;;;;10.07;50.80;99683.41;4463620;32;33702;-63
2023/01/22 02:12:47;;;;;;;;;;;;;;;10.10;50.48;99688.53;4470663;32;33906;-64
2023/01/22 02:15:14;;;;;;;;;;;;;;;9.94;50.46;99675.44;4474412;32;33840;-64
2023/01/22 02:17:41;;;;;;;;;;;;;;;10.22;50.10;99676.94;4469829;32;35325;-63
2023/01/22 02:20:09;;;;;;;;;;;;;;;10.28;49.98;99681.87;4468319;32;33134;-61
2023/01/22 02:22:36;;;;;;;;;;;;;;;9.85;51.32;99678.78;4472161;32;34475;-65
2023/01/22 02:25:04;;;;;;;;;;;;;;;10.24;50.04;99683.00;4466947;32;35159;-63
2023/01/22 02:27:31;;;;;;;;;;;;;;;10.04;50.57;99673.78;4476810;32;33320;-67
2023/01/22 02:29:58;;;;;;;;;;;;;;;10.00;50.56;99675.84;4476137;32;34943;-65
2023/01/22 02:32:27;;;;;;;;;;;;;;;9.96;50.73;99677.03;4469054;32;34299;-68
2023/01/22 02:34:55;;;;;;;;;;;;;;;9.94;51.00;99678.12;4475702;32;34396;-67
2023/01/22 02:37:22;;;;;;;;;;;;;;;10.07;50.23;99675.41;4475172;32;33724;-67
2023/01/22 02:39:51;;;;;;;;;;;;;;;10.18;50.00;99680.81;4466553;32;35209;-64
2023/01/22 02:42:19;;;;;;;;;;;;;;;10.21;49.92;99672.56;4467731;32;34291;-64
2023/01/22 02:44:46;;;;;;;;;;;;;;;10.31;49.55;99672.78;4472920;32;34383;-67
2023/01/22 02:47:13;;;;;;;;;;;;;;;9.97;50.05;99676.06;4471773;32;33061;-67
2023/01/22 02:49:41;;;;;;;;;;;;;;;9.83;50.53;99672.72;4470419;32;33872;-66
2023/01/22 02:52:08;;;;;;;;;;;;;;;10.02;49.45;99665.06;4467014;32;34874;-64
2023/01/22 02:54:35;;;;;;;;;;;;;;;10.00;49.28;99658.94;4466578;32;35424;-68
2023/01/22 02:57:03;;;;;;;;;;;;;;;9.78;50.13;99665.84;4470759;32;33728;-68
2023/01/22 02:59:30;;;;;;;;;;;;;;;9.71;50.32;99667.28;4477939;32;34901;-64
2023/01/22 03:01:57;;;;;;;;;;;;;;;9.08;52.24;99671.75;4470888;32;34563;-63
2023/01/22 03:04:26;;;;;;;;;;;;;;;9.58;50.59;99663.78;4466440;32;33230;-63
2023/01/22 03:06:53;;;;;;;;;;;;;;;9.16;52.14;99665.87;4474043;32;34551;-64
2023/01/22 03:09:21;;;;;;;;;;;;;;;9.67;50.23;99659.59;4472293;31;34259;-63
2023/01/22 03:11:49;;;;;;;;;;;;;;;9.76;50.56;99656.28;4471453;32;34103;-66
2023/01/22 03:22:37;;;;;;;;;;;;;;;9.56;50.86;99644.31;4464338;31;34225;-64
2023/01/22 03:25:05;;;;;;;;;;;;;;;9.84;50.02;99645.00;4475197;32;34010;-64
2023/01/22 03:27:32;;;;;;;;;;;;;;;9.86;49.94;99643.94;4478809;32;33803;-63
2023/01/22 03:29:59;;;;;;;;;;;;;;;9.89;49.74;99645.53;4471874;32;35147;-67
2023/01/22 03:32:30;;;;;;;;;;;;;;;9.91;49.74;99644.44;4474900;32;33010;-63
2023/01/22 03:34:58;;;;;;;;;;;;;;;9.85;49.96;99646.72;4471220;32;34051;-66
2023/01/22 03:37:26;;;;;;;;;;;;;;;9.82;50.16;99652.28;4473908;32;33825;-64
2023/01/22 03:39:56;;;;;;;;;;;;;;;10.01;49.61;99649.97;4475988;32;33827;-64
2023/01/22 03:42:24;;;;;;;;;;;;;;;9.91;49.97;99654.28;4481925;32;33278;-63
2023/01/22 03:44:51;;;;;;;;;;;;;;;9.73;50.38;99654.66;4476508;32;34897;-63
2023/01/22 03:47:19;;;;;;;;;;;;;;;9.86;50.03;99648.44;4473769;32;33461;-66
2023/01/22 03:49:46;;;;;;;;;;;;;;;9.88;49.94;99641.97;4466871;32;33913;-64
2023/01/22 03:52:13;;;;;;;;;;;;;;;9.86;50.21;99643.94;4466052;32;34302;-65
2023/01/22 03:54:41;;;;;;;;;;;;;;;9.83;50.19;99646.84;4473286;32;34423;-64
2023/01/22 03:57:08;;;;;;;;;;;;;;;9.99;49.85;99644.72;4478330;32;33577;-62
2023/01/22 03:59:36;;;;;;;;;;;;;;;9.53;51.16;99648.09;4470684;32;34137;-66
2023/01/22 04:02:03;;;;;;;;;;;;;;;9.90;50.38;99641.88;4466889;32;33980;-65
2023/01/22 04:04:33;;;;;;;;;;;;;;;9.93;50.32;99644.34;4468756;32;33289;-68
2023/01/22 04:07:01;;;;;;;;;;;;;;;10.02;50.01;99651.69;4469677;32;33570;-67
2023/01/22 04:09:28;;;;;;;;;;;;;;;10.00;49.99;99656.28;4470003;31;33875;-63
2023/01/22 04:11:56;;;;;;;;;;;;;;;9.86;50.46;99649.28;4466695;32;34607;-65
2023/01/22 04:14:25;;;;;;;;;;;;;;;9.99;50.22;99655.44;4468237;32;34218;-64
2023/01/22 04:16:53;;;;;;;;;;;;;;;9.75;50.68;99657.22;4472747;32;33537;-64
2023/01/22 04:19:21;;;;;;;;;;;;;;;9.74;50.90;99656.38;4472832;32;35247;-63
2023/01/22 04:21:49;;;;;;;;;;;;;;;9.74;50.95;99644.81;4465178;32;33074;-64
2023/01/22 04:24:18;;;;;;;;;;;;;;;9.96;50.20;99644.13;4467752;32;34025;-64
2023/01/22 04:26:46;;;;;;;;;;;;;;;9.95;50.44;99647.72;4468586;32;33599;-63
2023/01/22 04:29:14;;;;;;;;;;;;;;;10.04;50.15;99645.22;4465272;32;33030;-64
2023/01/22 04:31:42;;;;;;;;;;;;;;;9.92;50.46;99647.97;4468566;32;33317;-66
2023/01/22 04:34:10;;;;;;;;;;;;;;;8.89;53.76;99644.59;4480005;32;35396;-64
2023/01/22 04:36:38;;;;;;;;;;;;;;;9.49;51.79;99651.94;4464027;32;33494;-63
2023/01/22 04:39:05;;;;;;;;;;;;;;;9.18;52.36;99655.06;4471651;32;34462;-66
2023/01/22 04:41:33;;;;;;;;;;;;;;;9.74;51.13;99651.03;4479790;32;33640;-64
2023/01/22 04:44:00;;;;;;;;;;;;;;;9.41;52.09;99653.47;4473672;32;34454;-65
2023/01/22 04:46:27;;;;;;;;;;;;;;;9.24;53.08;99651.97;4469234;32;35105;-66
2023/01/22 04:48:55;;;;;;;;;;;;;;;9.18;52.98;99658.63;4473278;32;34026;-64
2023/01/22 04:51:22;;;;;;;;;;;;;;;9.48;51.96;99655.56;4475503;32;34855;-65
2023/01/22 04:53:49;;;;;;;;;;;;;;;9.62;51.26;99659.06;4473050;32;34333;-64
2023/01/22 04:56:17;;;;;;;;;;;;;;;9.45;52.22;99650.47;4466418;32;33667;-68
2023/01/22 04:58:45;;;;;;;;;;;;;;;9.81;50.92;99651.44;4478861;32;34546;-64
2023/01/22 05:01:12;;;;;;;;;;;;;;;9.19;52.92;99656.81;4470374;32;34056;-64
2023/01/22 05:03:40;;;;;;;;;;;;;;;9.60;51.67;99652.97;4477170;32;35616;-66
2023/01/22 05:06:08;;;;;;;;;;;;;;;9.69;51.37;99647.81;4479963;32;33846;-65
2023/01/22 05:08:35;;;;;;;;;;;;;;;9.78;51.52;99651.66;4465551;32;33708;-63
2023/01/22 05:11:03;;;;;;;;;;;;;;;9.82;51.17;99668.31;4475944;32;35407;-64
2023/01/22 05:13:30;;;;;;;;;;;;;;;9.64;51.05;99663.34;4468236;32;35042;-64
2023/01/22 05:15:58;;;;;;;;;;;;;;;9.13;52.72;99670.59;4471131;32;33413;-64
2023/01/22 05:18:25;;;;;;;;;;;;;;;9.50;51.43;99676.81;4468816;32;35284;-63
2023/01/22 05:20:52;;;;;;;;;;;;;;;9.25;52.30;99681.25;4465854;32;34306;-63
2023/01/22 05:23:20;;;;;;;;;;;;;;;9.67;51.41;99683.66;4466409;32;32572;-64
2023/01/22 05:25:48;;;;;;;;;;;;;;;9.58;51.70;99687.84;4471937;32;34756;-64
2023/01/22 05:28:15;;;;;;;;;;;;;;;9.60;51.34;99685.91;4471127;32;33736;-64
2023/01/22 05:30:46;;;;;;;;;;;;;;;9.35;51.82;99692.16;4467567;32;35451;-64
2023/01/22 05:33:14;;;;;;;;;;;;;;;9.50;51.63;99700.88;4473439;32;35520;-67
2023/01/22 05:35:41;;;;;;;;;;;;;;;9.51;51.58;99714.13;4475174;32;34716;-64
2023/01/22 05:38:10;;;;;;;;;;;;;;;9.31;52.34;99702.19;4482821;32;34845;-67
2023/01/22 05:40:37;;;;;;;;;;;;;;;9.56;51.87;99711.97;4482892;32;34114;-64
2023/01/22 05:43:04;;;;;;;;;;;;;;;9.49;52.02;99717.88;4482680;32;34154;-68
2023/01/22 05:45:32;;;;;;;;;;;;;;;9.76;51.22;99718.59;4479019;32;33266;-67
2023/01/22 05:48:00;;;;;;;;;;;;;;;9.90;50.44;99717.59;4472262;32;33696;-67
2023/01/22 05:50:29;;;;;;;;;;;;;;;9.78;51.50;99719.31;4466745;32;35120;-68
2023/01/22 05:53:00;;;;;;;;;;;;;;;9.79;51.82;99728.19;4469883;32;34356;-67
2023/01/22 05:55:27;;;;;;;;;;;;;;;9.84;51.98;99720.72;4476563;32;33462;-66
2023/01/22 05:57:55;;;;;;;;;;;;;;;9.75;52.18;99732.06;4480257;31;34093;-67
2023/01/22 06:00:22;;;;;;;;;;;;;;;10.00;51.23;99732.00;4474426;32;35118;-66
2023/01/22 06:02:57;;;;;;;;;;;;;;;10.26;50.03;99739.97;4473399;32;34205;-66
2023/01/22 06:05:25;;;;;;;;;;;;;;;9.71;51.69;99735.91;4470851;32;35188;-66
2023/01/22 06:07:54;;;;;;;;;;;;;;;10.07;50.66;99736.91;4480667;31;34283;-67
2023/01/22 06:10:22;;;;;;;;;;;;;;;10.18;50.16;99732.50;4470500;31;35457;-67
2023/01/22 06:12:50;;;;;;;;;;;;;;;9.95;50.84;99741.31;4474180;31;33108;-66
2023/01/22 06:15:17;;;;;;;;;;;;;;;9.82;50.51;99746.69;4469219;32;34711;-66
2023/01/22 06:17:46;;;;;;;;;;;;;;;9.50;51.39;99755.19;4479030;32;35234;-66
2023/01/22 06:20:13;;;;;;;;;;;;;;;9.19;53.12;99747.59;4470745;32;34292;-67
2023/01/22 06:22:41;;;;;;;;;;;;;;;9.51;52.39;99762.22;4473141;32;33193;-76
2023/01/22 06:25:09;;;;;;;;;;;;;;;9.85;51.15;99751.81;4474129;32;34446;-68
2023/01/22 06:27:38;;;;;;;;;;;;;;;9.73;51.37;99766.06;4473134;32;34356;-66
2023/01/22 06:30:06;;;;;;;;;;;;;;;9.71;51.56;99770.66;4470569;32;34482;-68
2023/01/22 06:32:33;;;;;;;;;;;;;;;9.54;52.38;99779.87;4470607;32;35516;-67
2023/01/22 06:35:01;;;;;;;;;;;;;;;9.39;52.35;99788.94;4465260;32;34634;-68
2023/01/22 06:37:28;;;;;;;;;;;;;;;9.55;52.35;99800.28;4469070;32;34136;-67
2023/01/22 06:39:56;;;;;;;;;;;;;;;9.56;52.43;99802.81;4473005;32;34289;-67
2023/01/22 06:42:24;;;;;;;;;;;;;;;9.69;51.72;99801.97;4478259;32;33296;-66
2023/01/22 06:44:51;;;;;;;;;;;;;;;9.49;53.17;99790.88;4475104;32;32421;-66
2023/01/22 06:47:18;;;;;;;;;;;;;;;9.84;52.06;99792.88;4469629;32;34217;-68
2023/01/22 06:49:46;;;;;;;;;;;;;;;9.95;50.96;99792.09;4472760;32;33072;-67
2023/01/22 06:52:14;;;;;;;;;;;;;;;9.55;52.68;99789.59;4467885;32;34578;-66
2023/01/22 06:54:41;;;;;;;;;;;;;;;9.60;53.24;99797.28;4474005;32;34594;-67
2023/01/22 06:57:08;;;;;;;;;;;;;;;9.82;52.24;99800.16;4481905;31;34068;-65
2023/01/22 06:59:36;;;;;;;;;;;;;;;9.97;51.25;99801.72;4479520;32;34199;-65
2023/01/22 07:02:03;;;;;;;;;;;;;;;10.04;50.80;99813.69;4470114;32;34322;-64
2023/01/22 07:04:31;;;;;;;;;;;;;;;10.03;50.83;99806.66;4466320;32;33249;-64
2023/01/22 07:06:58;;;;;;;;;;;;;;;10.06;50.68;99810.09;4470459;32;34050;-65
2023/01/22 07:09:25;;;;;;;;;;;;;;;10.11;51.17;99829.31;4473523;31;34876;-65
2023/01/22 07:11:53;;;;;;;;;;;;;;;10.08;51.65;99817.03;4468145;32;34421;-65
2023/01/22 07:14:20;;;;;;;;;;;;;;;9.94;52.14;99812.66;4465614;32;33450;-67
2023/01/22 07:17:02;;;;;;;;;;;;;;;10.25;51.06;99815.81;4475754;32;33336;-65
2023/01/22 07:19:30;;;;;;;;;;;;;;;9.94;52.37;99819.81;4468789;31;34199;-65
2023/01/22 07:21:57;;;;;;;;;;;;;;;10.21;51.74;99825.87;4473878;32;35406;-66
2023/01/22 07:24:24;;;;;;;;;;;;;;;10.31;50.78;99835.97;4465244;32;33419;-65
2023/01/22 07:26:52;;;;;;;;;;;;;;;10.19;51.39;99837.66;4465173;32;34174;-65
2023/01/22 07:29:19;;;;;;;;;;;;;;;10.32;50.62;99840.34;4468923;31;34085;-66
2023/01/22 07:31:46;;;;;;;;;;;;;;;10.31;50.72;99850.19;4464897;32;33990;-65
2023/01/22 07:34:16;;;;;;;;;;;;;;;10.38;50.93;99851.44;4465169;31;32748;-65
2023/01/22 07:36:45;;;;;;;;;;;;;;;10.35;51.58;99851.66;4476422;32;33773;-67
2023/01/22 07:39:12;;;;;;;;;;;;;;;10.38;51.83;99855.94;4471848;32;34858;-65
2023/01/22 07:41:40;;;;;;;;;;;;;;;10.37;51.36;99856.87;4476055;32;35404;-65
2023/01/22 07:44:09;;;;;;;;;;;;;;;10.43;51.00;99851.97;4468750;32;33427;-65
2023/01/22 07:46:37;;;;;;;;;;;;;;;10.44;51.50;99859.03;4466560;31;34826;-65
2023/01/22 07:49:05;;;;;;;;;;;;;;;10.33;51.75;99860.75;4468484;32;34289;-65
2023/01/22 07:51:32;;;;;;;;;;;;;;;10.07;52.70;99854.56;4473165;32;35114;-67
2023/01/22 07:54:00;;;;;;;;;;;;;;;10.35;52.21;99862.38;4473746;32;33626;-64
2023/01/22 07:56:27;;;;;;;;;;;;;;;10.12;52.33;99863.97;4476863;32;33969;-64
2023/01/22 07:58:54;;;;;;;;;;;;;;;10.12;52.33;99868.47;4476696;32;35277;-65
2023/01/22 08:01:22;;;;;;;;;;;;;;;10.33;51.39;99860.75;4474980;32;34369;-66
2023/01/22 08:03:49;;;;;;;;;;;;;;;10.44;51.15;99860.84;4480358;32;34083;-66
2023/01/22 08:06:17;;;;;;;;;;;;;;;10.45;51.51;99854.53;4474468;32;34078;-66
2023/01/22 08:08:44;;;;;;;;;;;;;;;10.46;51.55;99858.91;4476367;32;35220;-66
2023/01/22 08:11:11;;;;;;;;;;;;;;;10.43;51.75;99870.72;4472312;32;35067;-67
2023/01/22 08:13:39;;;;;;;;;;;;;;;10.34;51.46;99870.53;4469171;32;33462;-67
2023/01/22 08:16:08;;;;;;;;;;;;;;;10.23;51.87;99888.13;4465785;32;35209;-65
2023/01/22 08:18:35;;;;;;;;;;;;;;;10.28;51.57;99900.38;4474807;32;34339;-67
2023/01/22 08:21:03;;;;;;;;;;;;;;;9.90;52.46;99902.06;4473223;32;34059;-65
2023/01/22 08:23:30;;;;;;;;;;;;;;;10.16;52.39;99902.91;4468251;32;33533;-65
2023/01/22 08:26:02;;;;;;;;;;;;;;;10.01;53.06;99899.47;4469350;31;34561;-67
2023/01/22 08:28:30;;;;;;;;;;;;;;;9.51;54.45;99906.53;4467546;32;35550;-66
2023/01/22 08:30:58;;;;;;;;;;;;;;;9.50;53.47;99901.25;4467643;31;34681;-65
2023/01/22 08:33:25;;;;;;;;;;;;;;;9.00;55.26;99903.69;4458384;32;33145;-66
2023/01/22 08:35:52;;;;;;;;;;;;;;;9.15;55.36;99915.19;4467883;31;35602;-66
2023/01/22 08:38:20;;;;;;;;;;;;;;;9.21;55.58;99911.22;4484268;32;34469;-66
2023/01/22 08:40:48;;;;;;;;;;;;;;;9.13;54.91;99916.25;4478909;32;33387;-66
2023/01/22 08:43:15;;;;;;;;;;;;;;;8.82;56.58;99915.56;4478895;32;33836;-65
2023/01/22 08:45:43;;;;;;;;;;;;;;;9.43;54.56;99922.19;4481153;32;34942;-67
2023/01/22 08:48:10;;;;;;;;;;;;;;;9.26;54.70;99927.81;4467604;32;34083;-67
2023/01/22 08:50:38;;;;;;;;;;;;;;;9.43;54.61;99932.87;4475731;31;35188;-66
2023/01/22 08:53:05;;;;;;;;;;;;;;;8.56;56.34;99934.09;4479813;32;33062;-66
2023/01/22 08:55:33;;;;;;;;;;;;;;;8.29;57.36;99952.66;4468678;32;34894;-65
2023/01/22 08:58:00;;;;;;;;;;;;;;;8.41;57.71;99945.75;4472625;31;34841;-64
2023/01/22 09:00:27;;;;;;;;;;;;;;;8.28;57.97;99947.41;4481901;32;34624;-64
2023/01/22 09:02:55;;;;;;;;;;;;;;;8.26;57.76;99947.53;4476657;32;33672;-68
2023/01/22 09:05:23;;;;;;;;;;;;;;;8.39;57.59;99953.00;4476925;32;34992;-65
2023/01/22 09:07:50;;;;;;;;;;;;;;;8.66;57.55;99941.53;4476319;32;33975;-65
2023/01/22 09:10:17;;;;;;;;;;;;;;;7.86;60.28;99951.75;4469820;32;34702;-67
2023/01/22 09:12:47;;;;;;;;;;;;;;;7.97;59.82;99954.66;4471288;32;33853;-66
2023/01/22 09:15:15;;;;;;;;;;;;;;;8.30;59.88;99961.53;4478105;31;34311;-65
2023/01/22 09:17:42;;;;;;;;;;;;;;;8.54;59.17;99961.81;4472354;31;35277;-65
2023/01/22 09:20:09;;;;;;;;;;;;;;;9.00;58.09;99964.25;4478821;31;34456;-66
2023/01/22 09:22:37;;;;;;;;;;;;;;;8.83;58.01;99960.84;4468138;32;33319;-66
2023/01/22 09:25:05;;;;;;;;;;;;;;;8.24;59.89;99969.91;4480672;32;34798;-67
2023/01/22 09:27:32;;;;;;;;;;;;;;;8.75;58.11;99964.97;4472956;32;34962;-64
2023/01/22 09:29:59;;;;;;;;;;;;;;;7.93;59.55;99969.13;4469507;32;35067;-65
2023/01/22 09:32:27;;;;;;;;;;;;;;;7.96;60.63;99979.59;4471297;32;33529;-64
2023/01/22 09:34:54;;;;;;;;;;;;;;;8.12;60.04;99977.72;4478585;32;34211;-66
2023/01/22 09:37:21;;;;;;;;;;;;;;;8.26;59.19;99974.19;4469649;31;34305;-65
2023/01/22 09:39:49;;;;;;;;;;;;;;;8.95;57.67;99977.87;4476249;32;34198;-65
2023/01/22 09:42:19;;;;;;;;;;;;;;;8.98;57.74;99977.69;4479508;32;34380;-65
2023/01/22 09:44:47;;;;;;;;;;;;;;;8.96;58.00;99973.41;4478981;32;33932;-65
2023/01/22 09:47:16;;;;;;;;;;;;;;;9.48;56.62;99986.88;4460653;32;33214;-67
2023/01/22 09:49:51;;;;;;;;;;;;;;;9.44;57.58;99995.22;4479694;32;34201;-66
2023/01/22 09:52:18;;;;;;;;;;;;;;;9.26;57.20;99991.94;4480755;32;33840;-66
2023/01/22 09:54:47;;;;;;;;;;;;;;;9.30;56.95;99993.44;4474370;32;34129;-64
2023/01/22 09:57:15;;;;;;;;;;;;;;;9.10;57.13;99982.22;4482105;32;34965;-65
2023/01/22 09:59:58;;;;;;;;;;;;;;;9.04;58.01;99993.31;4483181;32;34674;-66
2023/01/22 10:02:29;;;;;;;;;;;;;;;9.53;56.48;99986.56;4477624;31;33682;-66
2023/01/22 10:05:04;;;;;;;;;;;;;;;9.25;56.90;99982.22;4473876;32;34130;-67
2023/01/22 10:07:33;;;;;;;;;;;;;;;9.95;54.96;99985.50;4477006;32;34543;-67
2023/01/22 10:10:08;;;;;;;;;;;;;;;9.45;56.86;99989.75;4459155;32;34088;-66
2023/01/22 10:12:35;;;;;;;;;;;;;;;10.07;55.01;99993.63;4458511;32;33408;-65
2023/01/22 10:15:03;;;;;;;;;;;;;;;10.22;53.95;99988.09;4470916;32;35580;-66
2023/01/22 10:17:31;;;;;;;;;;;;;;;10.01;54.18;99990.41;4471447;32;34632;-66
2023/01/22 10:19:59;;;;;;;;;;;;;;;9.78;55.41;99991.13;4471642;32;34281;-65
2023/01/22 10:22:27;;;;;;;;;;;;;;;9.60;56.41;99995.03;4470248;32;31878;-66
2023/01/22 10:24:54;;;;;;;;;;;;;;;9.07;56.98;99993.09;4475656;32;34184;-66
2023/01/22 10:27:24;;;;;;;;;;;;;;;9.86;56.13;99988.81;4478653;32;34244;-66
2023/01/22 10:30:07;;;;;;;;;;;;;;;9.76;56.05;99995.75;4478040;32;35712;-65
2023/01/22 10:32:34;;;;;;;;;;;;;;;9.78;55.98;100002.66;4470452;32;33465;-67
2023/01/22 10:35:04;;;;;;;;;;;;;;;10.36;53.52;100002.34;4474947;31;34295;-68
2023/01/22 10:37:41;;;;;;;;;;;;;;;9.65;55.51;100000.94;4478953;32;33499;-66
2023/01/22 10:40:44;;;;;;;;;;;;;;;9.57;55.40;100001.44;4456896;32;34523;-66
2023/01/22 10:43:13;;;;;;;;;;;;;;;9.57;55.07;100012.12;4400724;32;34783;-67
2023/01/22 10:45:54;;;;;;;;;;;;;;;9.30;56.37;99999.63;4466866;32;33812;-65
2023/01/22 10:48:21;;;;;;;;;;;;;;;8.85;58.16;100003.44;4471976;31;35141;-64
2023/01/22 10:51:18;;;;;;;;;;;;;;;8.85;59.01;100006.13;4476892;32;34535;-65
2023/01/22 10:53:46;;;;;;;;;;;;;;;9.48;57.35;100004.72;4457706;32;34264;-64
2023/01/22 10:56:23;;;;;;;;;;;;;;;9.03;57.79;100006.78;4471968;32;33978;-64
2023/01/22 10:58:51;;;;;;;;;;;;;;;9.17;58.01;100009.41;4455169;32;34529;-65
2023/01/22 11:01:26;;;;;;;;;;;;;;;8.89;57.96;100015.62;4453268;32;34035;-65
2023/01/22 11:03:53;;;;;;;;;;;;;;;8.30;61.21;100018.38;4473520;32;33747;-67
2023/01/22 11:06:23;;;;;;;;;;;;;;;8.75;59.87;100018.34;4456377;32;34802;-66
2023/01/22 11:08:52;;;;;;;;;;;;;;;8.93;58.98;100014.50;4456690;32;34439;-63
2023/01/22 11:11:22;;;;;;;;;;;;;;;8.78;59.40;100016.31;4463831;32;34381;-64
2023/01/22 11:14:03;;;;;;;;;;;;;;;8.60;60.69;100012.12;4465376;32;32952;-64
2023/01/22 11:16:31;;;;;;;;;;;;;;;8.72;59.61;100007.84;4466637;32;34219;-66
2023/01/22 11:19:01;;;;;;;;;;;;;;;8.28;61.12;100016.75;4453125;32;35288;-67
2023/01/22 11:21:29;;;;;;;;;;;;;;;8.75;60.32;100013.00;4458493;32;34728;-67
2023/01/22 11:24:03;;;;;;;;;;;;;;;8.54;60.82;100026.75;4454142;32;33602;-65
2023/01/22 11:27:00;;;;;;;;;;;;;;;8.78;60.58;100012.81;4453517;32;34095;-65
2023/01/22 11:29:46;;;;;;;;;;;;;;;8.53;61.28;100017.00;4454684;32;34302;-67
2023/01/22 11:32:32;;;;;;;;;;;;;;;9.13;58.84;100023.91;4470449;32;33955;-67
2023/01/22 11:35:00;;;;;;;;;;;;;;;8.54;60.26;100026.75;4468963;32;33685;-67
2023/01/22 11:37:40;;;;;;;;;;;;;;;7.56;63.62;100029.91;4469496;32;33895;-65
2023/01/22 11:40:10;;;;;;;;;;;;;;;7.85;62.54;100040.66;4456763;32;32877;-65
2023/01/22 11:42:47;;;;;;;;;;;;;;;8.42;61.24;100042.62;4472920;32;33539;-67
2023/01/22 11:45:20;;;;;;;;;;;;;;;7.94;63.12;100040.13;4476245;32;34438;-65
2023/01/22 11:48:00;;;;;;;;;;;;;;;8.43;61.17;100045.19;4479465;32;33579;-65
2023/01/22 11:50:46;;;;;;;;;;;;;;;8.11;62.25;100042.62;4457224;32;35388;-65
2023/01/22 11:53:16;;;;;;;;;;;;;;;8.58;61.27;100032.75;4471425;32;34463;-66
2023/01/22 11:55:59;;;;;;;;;;;;;;;8.59;61.46;100040.63;4459884;32;34165;-67
2023/01/22 11:58:27;;;;;;;;;;;;;;;9.09;59.33;100044.63;4459109;32;34766;-65
2023/01/22 12:01:07;;;;;;;;;;;;;;;9.02;59.79;100051.31;4477156;32;34332;-65
2023/01/22 12:03:44;;;;;;;;;;;;;;;8.88;60.35;100050.44;4458251;32;34206;-65
2023/01/22 12:06:12;;;;;;;;;;;;;;;8.82;60.29;100044.53;4476537;32;33418;-65
2023/01/22 12:08:51;;;;;;;;;;;;;;;9.26;59.04;100045.34;4473811;32;35358;-65
2023/01/22 12:11:37;;;;;;;;;;;;;;;9.37;58.67;100053.50;4480025;32;35069;-66
2023/01/22 12:14:09;;;;;;;;;;;;;;;8.90;60.64;100065.41;4473471;32;34145;-65
2023/01/22 12:16:42;;;;;;;;;;;;;;;8.49;61.50;100074.16;4468201;32;34579;-65
2023/01/22 12:19:14;;;;;;;;;;;;;;;9.56;58.47;100063.84;4477980;32;33729;-66
2023/01/22 12:21:47;;;;;;;;;;;;;;;9.65;57.90;100067.75;4465974;32;34264;-65
2023/01/22 12:24:21;;;;;;;;;;;;;;;8.63;60.73;100074.19;4456955;32;34468;-65
2023/01/22 12:27:21;;;;;;;;;;;;;;;9.53;57.59;100062.25;4454835;32;34557;-67
2023/01/22 12:29:51;;;;;;;;;;;;;;;9.51;58.60;100076.69;4438788;32;34027;-65
2023/01/22 12:32:21;;;;;;;;;;;;;;;9.09;58.66;100079.31;4470126;32;33453;-67
2023/01/22 12:34:51;;;;;;;;;;;;;;;9.39;59.21;100078.31;4461652;32;31817;-65
2023/01/22 12:37:20;;;;;;;;;;;;;;;9.97;57.37;100074.47;4474116;32;34678;-65
2023/01/22 12:39:48;;;;;;;;;;;;;;;9.71;58.25;100078.88;4455379;31;33580;-65
2023/01/22 12:42:24;;;;;;;;;;;;;;;10.09;56.95;100072.81;4469574;32;34172;-66
2023/01/22 12:45:04;;;;;;;;;;;;;;;9.99;57.58;100074.41;4454180;32;34345;-67
2023/01/22 12:47:35;;;;;;;;;;;;;;;9.93;57.14;100080.16;4460420;32;32164;-66
2023/01/22 12:50:02;;;;;;;;;;;;;;;9.57;58.34;100082.47;4468903;32;33097;-65
2023/01/22 12:52:31;;;;;;;;;;;;;;;9.86;57.47;100087.72;4475069;32;34386;-68
2023/01/22 12:54:58;;;;;;;;;;;;;;;10.45;55.71;100095.38;4468399;32;34197;-65
2023/01/22 12:57:38;;;;;;;;;;;;;;;10.41;56.08;100097.41;4471800;32;34316;-65
2023/01/22 13:00:25;;;;;;;;;;;;;;;10.75;54.91;100105.75;4469883;32;35164;-67
2023/01/22 13:02:52;;;;;;;;;;;;;;;10.77;54.38;100106.53;4471374;32;34348;-67
2023/01/22 13:05:25;;;;;;;;;;;;;;;10.66;54.97;100103.75;4476424;32;33324;-67
2023/01/22 13:08:06;;;;;;;;;;;;;;;10.94;54.66;100106.19;4480160;32;33783;-64
2023/01/22 13:10:35;;;;;;;;;;;;;;;10.84;54.66;100113.16;4480668;32;34552;-66
2023/01/22 13:13:02;;;;;;;;;;;;;;;10.28;56.60;100103.69;4483647;32;34912;-66
2023/01/22 13:15:31;;;;;;;;;;;;;;;10.47;55.93;100102.34;4472048;32;35473;-67